»·PEaware :: N9679U KSMX-KBFL

N9679U :: KSMX-KBFL

FLIGHT INFORMATION

Flight Status: Arrived
Operator: Privately registered:
United States
More flights under this callsign
Pilot: Eric T. (21198)
Aircraft: PIPER PA-28 CHEROKEE ARCHER
(PA28)
More flights by this aircraft type
Origin: KSMX Santa Maria Pub/Capt Hancock
United States
Destination: KBFL Meadows
United States
More flights between these airports :: More routes between these airports
Route: WYNNR DOUIT
File this flight plan on PilotEdge
Remarks: CAT5
Altitude:
(Current/Filed)
5,500ft
Speed:
(Current/Filed)
120kts
Departed: 06-Aug-20 04:03 PM
Arrived: 06-Aug-20 04:56 PM
Distance/Time
Traveled:
76nm/0:53
Distance/Time
To Go:
Arrived

Flight Plot

Page will automatically refresh every two minutes.

Flight plan parsing failed; only flown route is shown


Map Options




Map Legend


Flown Route
Filed Route
Departure Airport
Arrival Airport
Navaid (VOR, NDB)
Fix

Horizontal Profiles

Position Reports

Time Latitude Longitude Heading Altitude Ground
Speed
06-Aug-20 15:45 34.896453 -120.446157 313 264ft 0kts
06-Aug-20 15:46 34.896455 -120.446160 313 264ft 0kts
06-Aug-20 15:47 34.896457 -120.446163 313 264ft 0kts
06-Aug-20 15:48 34.896465 -120.446172 313 264ft 0kts
06-Aug-20 15:49 34.896595 -120.446339 313 264ft 4kts
06-Aug-20 15:50 34.896036 -120.445916 135 264ft 6kts
06-Aug-20 15:51 34.895261 -120.444974 137 264ft 2kts
06-Aug-20 15:52 34.895249 -120.444962 142 264ft 0kts
06-Aug-20 15:53 34.895246 -120.444960 142 264ft 0kts
06-Aug-20 15:54 34.895244 -120.444958 142 264ft 0kts
06-Aug-20 15:55 34.894881 -120.445153 224 264ft 3kts
06-Aug-20 15:56 34.893871 -120.445123 144 264ft 4kts
06-Aug-20 15:57 34.893588 -120.445041 260 264ft 0kts
06-Aug-20 15:58 34.893587 -120.445048 260 264ft 0kts
06-Aug-20 15:59 34.893586 -120.445052 260 264ft 0kts
06-Aug-20 16:00 34.893582 -120.445073 254 264ft 2kts
06-Aug-20 16:01 34.892850 -120.445748 257 264ft 6kts
06-Aug-20 16:02 34.902581 -120.456781 318 779ft 73kts
06-Aug-20 16:03 34.919734 -120.471988 320 1751ft 75kts
06-Aug-20 16:04 34.936358 -120.489109 319 2566ft 85kts
06-Aug-20 16:05 34.957453 -120.489753 37 2561ft 95kts
06-Aug-20 16:06 34.976175 -120.462864 42 2347ft 109kts
06-Aug-20 16:07 34.995712 -120.432444 52 2479ft 118kts
06-Aug-20 16:08 35.013273 -120.404716 37 3253ft 94kts
06-Aug-20 16:09 35.024258 -120.379410 85 4083ft 89kts
06-Aug-20 16:11 35.035731 -120.355980 40 4792ft 85kts
06-Aug-20 16:12 35.050603 -120.335345 58 5412ft 89kts
06-Aug-20 16:13 35.063273 -120.311502 49 6029ft 85kts
06-Aug-20 16:14 35.074219 -120.285812 45 6555ft 84kts
06-Aug-20 16:15 35.088971 -120.264111 46 7096ft 84kts
06-Aug-20 16:16 35.103276 -120.239459 51 7464ft 102kts
06-Aug-20 16:17 35.120297 -120.208938 43 7586ft 113kts
06-Aug-20 16:18 35.141055 -120.179471 46 7504ft 114kts
06-Aug-20 16:19 35.161012 -120.150119 44 7442ft 108kts
06-Aug-20 16:20 35.181453 -120.123285 40 7454ft 107kts
06-Aug-20 16:21 35.204229 -120.099566 40 7469ft 108kts
06-Aug-20 16:22 35.225120 -120.072608 44 7451ft 109kts
06-Aug-20 16:23 35.244981 -120.044528 45 7467ft 111kts
06-Aug-20 16:24 35.263818 -120.014752 50 7651ft 111kts
06-Aug-20 16:25 35.283095 -119.983210 51 7631ft 118kts
06-Aug-20 16:26 35.304456 -119.951887 41 7573ft 119kts
06-Aug-20 16:27 35.329138 -119.924194 33 7512ft 119kts
06-Aug-20 16:28 35.354685 -119.897640 42 7608ft 123kts
06-Aug-20 16:29 35.377212 -119.866060 50 7570ft 123kts
06-Aug-20 16:29 35.393324 -119.837219 65 7516ft 124kts
06-Aug-20 16:31 35.397904 -119.788612 80 7298ft 119kts
06-Aug-20 16:31 35.401043 -119.753859 83 7002ft 128kts
06-Aug-20 16:32 35.404493 -119.710383 83 6903ft 128kts
06-Aug-20 16:34 35.402324 -119.659375 92 6689ft 128kts
06-Aug-20 16:34 35.400433 -119.623258 93 6622ft 128kts
06-Aug-20 16:35 35.398866 -119.579744 95 6555ft 127kts
06-Aug-20 16:36 35.398214 -119.562997 91 6786ft 112kts
06-Aug-20 16:37 35.402054 -119.525619 59 6842ft 108kts
06-Aug-20 16:38 35.415749 -119.490894 73 6156ft 110kts
06-Aug-20 16:39 35.418078 -119.453024 90 5721ft 113kts
06-Aug-20 16:40 35.416668 -119.413454 92 5210ft 122kts
06-Aug-20 16:41 35.415160 -119.372292 91 4632ft 119kts
06-Aug-20 16:42 35.412794 -119.331511 95 3973ft 118kts
06-Aug-20 16:43 35.417213 -119.292738 83 3199ft 114kts
06-Aug-20 16:44 35.419015 -119.255684 90 2527ft 103kts
06-Aug-20 16:45 35.418456 -119.221280 85 2030ft 97kts
06-Aug-20 16:46 35.419420 -119.188111 87 1885ft 97kts
06-Aug-20 16:47 35.419598 -119.152405 88 1936ft 110kts
06-Aug-20 16:48 35.422366 -119.114674 79 1481ft 103kts
06-Aug-20 16:49 35.425332 -119.084337 79 1532ft 85kts
06-Aug-20 16:50 35.410079 -119.063915 165 1521ft 100kts
06-Aug-20 16:51 35.393873 -119.045675 68 1126ft 83kts
06-Aug-20 16:52 35.407846 -119.029127 341 998ft 57kts
06-Aug-20 16:53 35.419354 -119.042254 316 818ft 57kts
06-Aug-20 16:54 35.430391 -119.055543 311 537ft 53kts
06-Aug-20 16:55 35.434501 -119.060120 1 510ft 9kts
06-Aug-20 16:56 35.434862 -119.059953 43 510ft 0kts
06-Aug-20 16:57 35.436146 -119.058388 35 510ft 7kts
06-Aug-20 16:58 35.434913 -119.055240 137 510ft 14kts
06-Aug-20 16:59 35.433235 -119.053203 135 510ft 9kts
06-Aug-20 17:00 35.431959 -119.051664 135 510ft 6kts
06-Aug-20 17:01 35.430542 -119.049970 135 510ft 5kts
06-Aug-20 17:02 35.430030 -119.048164 67 510ft 5kts

Navigation Log

Ident Type
Flight plan parsing failed, navigation log unavailable